Bergama, Turkey
Current Conditions -  °F | °C
As of 4:50 PM on Thursday 27 Nov 2014 (Local Time) from LTFD Reporting Station
Scattered Clouds Scattered Clouds  
Wind Chill: 52°   Ceiling: Unl
Heat Index: 52°   Visibility: 6mi
Dew Point: 34°   Wind: 14mph
Humidity: 50%   Direction: 60°ENE
Pressure: 30.15"   Gusts: NA
Location:  39.13°N, 27.17°E
Report Text: LTFD 271350Z 06012KT 9999 FEW035 SCT100 11/01 Q1021
Loading
Personal Weather Stations






























Interactive Weather Map New forecast layout! Learn more

10-Day Weather Forecast

Advertisements
Track Severe Weather on mobile